sensor_id;sensor_type;location;lat;lon;timestamp;P1;durP1;ratioP1;P2;durP2;ratioP2
1154;SDS011;566;48.414;9.118;2022-10-12T00:00:52;86.97;;;46.83;;
1154;SDS011;566;48.414;9.118;2022-10-12T00:03:18;67.10;;;42.70;;
1154;SDS011;566;48.414;9.118;2022-10-12T00:05:44;91.68;;;50.53;;
1154;SDS011;566;48.414;9.118;2022-10-12T00:08:10;72.03;;;42.83;;
1154;SDS011;566;48.414;9.118;2022-10-12T00:10:40;103.30;;;50.15;;
1154;SDS011;566;48.414;9.118;2022-10-12T00:13:06;81.95;;;45.05;;
1154;SDS011;566;48.414;9.118;2022-10-12T00:15:35;75.43;;;44.97;;
1154;SDS011;566;48.414;9.118;2022-10-12T00:18:04;98.15;;;49.90;;
1154;SDS011;566;48.414;9.118;2022-10-12T00:20:30;81.97;;;45.10;;
1154;SDS011;566;48.414;9.118;2022-10-12T00:22:56;77.47;;;45.97;;
1154;SDS011;566;48.414;9.118;2022-10-12T00:25:21;99.18;;;49.70;;
1154;SDS011;566;48.414;9.118;2022-10-12T00:27:47;77.55;;;44.17;;
1154;SDS011;566;48.414;9.118;2022-10-12T00:30:15;67.63;;;41.00;;
1154;SDS011;566;48.414;9.118;2022-10-12T00:32:41;81.38;;;45.83;;
1154;SDS011;566;48.414;9.118;2022-10-12T00:35:07;64.35;;;40.35;;
1154;SDS011;566;48.414;9.118;2022-10-12T00:37:33;69.25;;;40.97;;
1154;SDS011;566;48.414;9.118;2022-10-12T00:39:58;54.50;;;37.42;;
1154;SDS011;566;48.414;9.118;2022-10-12T00:42:24;56.03;;;35.50;;
1154;SDS011;566;48.414;9.118;2022-10-12T00:44:50;61.53;;;36.55;;
1154;SDS011;566;48.414;9.118;2022-10-12T00:52:22;60.35;;;35.70;;
1154;SDS011;566;48.414;9.118;2022-10-12T00:54:51;67.65;;;36.72;;
1154;SDS011;566;48.414;9.118;2022-10-12T00:57:18;85.43;;;41.17;;
1154;SDS011;566;48.414;9.118;2022-10-12T00:59:48;82.72;;;42.92;;
1154;SDS011;566;48.414;9.118;2022-10-12T01:02:17;70.35;;;40.45;;
1154;SDS011;566;48.414;9.118;2022-10-12T01:04:43;50.65;;;31.23;;
1154;SDS011;566;48.414;9.118;2022-10-12T01:07:10;46.38;;;28.95;;
1154;SDS011;566;48.414;9.118;2022-10-12T01:09:36;59.95;;;33.95;;
1154;SDS011;566;48.414;9.118;2022-10-12T01:12:02;56.05;;;31.80;;
1154;SDS011;566;48.414;9.118;2022-10-12T01:14:29;75.28;;;38.70;;
1154;SDS011;566;48.414;9.118;2022-10-12T01:17:11;67.68;;;35.80;;
1154;SDS011;566;48.414;9.118;2022-10-12T01:20:10;54.67;;;32.65;;
1154;SDS011;566;48.414;9.118;2022-10-12T01:23:38;53.30;;;32.60;;
1154;SDS011;566;48.414;9.118;2022-10-12T01:32:09;72.68;;;40.20;;
1154;SDS011;566;48.414;9.118;2022-10-12T01:34:45;84.53;;;42.15;;
1154;SDS011;566;48.414;9.118;2022-10-12T01:37:51;99.95;;;45.33;;
1154;SDS011;566;48.414;9.118;2022-10-12T01:40:11;117.53;;;43.70;;
1154;SDS011;566;48.414;9.118;2022-10-12T01:42:42;126.72;;;46.92;;
1154;SDS011;566;48.414;9.118;2022-10-12T01:45:10;128.20;;;44.40;;
1154;SDS011;566;48.414;9.118;2022-10-12T01:47:38;110.85;;;41.22;;
1154;SDS011;566;48.414;9.118;2022-10-12T01:50:07;103.70;;;36.00;;
1154;SDS011;566;48.414;9.118;2022-10-12T01:53:20;275.42;;;45.05;;
1154;SDS011;566;48.414;9.118;2022-10-12T01:58:12;114.53;;;41.45;;
1154;SDS011;566;48.414;9.118;2022-10-12T02:03:46;133.30;;;43.42;;
1154;SDS011;566;48.414;9.118;2022-10-12T02:06:16;75.88;;;37.45;;
1154;SDS011;566;48.414;9.118;2022-10-12T02:08:47;110.43;;;44.38;;
1154;SDS011;566;48.414;9.118;2022-10-12T02:11:22;88.95;;;39.90;;
1154;SDS011;566;48.414;9.118;2022-10-12T02:13:51;68.47;;;36.38;;
1154;SDS011;566;48.414;9.118;2022-10-12T02:16:38;79.13;;;36.08;;
1154;SDS011;566;48.414;9.118;2022-10-12T02:19:12;80.22;;;37.25;;
1154;SDS011;566;48.414;9.118;2022-10-12T02:21:44;58.72;;;33.20;;
1154;SDS011;566;48.414;9.118;2022-10-12T02:24:11;75.32;;;37.25;;
1154;SDS011;566;48.414;9.118;2022-10-12T02:26:41;72.53;;;34.75;;
1154;SDS011;566;48.414;9.118;2022-10-12T02:29:09;102.68;;;41.60;;
1154;SDS011;566;48.414;9.118;2022-10-12T02:31:55;108.65;;;41.70;;
1154;SDS011;566;48.414;9.118;2022-10-12T02:40:50;81.93;;;36.85;;
1154;SDS011;566;48.414;9.118;2022-10-12T02:43:33;91.35;;;39.40;;
1154;SDS011;566;48.414;9.118;2022-10-12T02:46:08;66.20;;;32.75;;
1154;SDS011;566;48.414;9.118;2022-10-12T02:48:35;73.18;;;35.22;;
1154;SDS011;566;48.414;9.118;2022-10-12T02:51:04;64.03;;;32.78;;
1154;SDS011;566;48.414;9.118;2022-10-12T02:53:32;56.65;;;29.55;;
1154;SDS011;566;48.414;9.118;2022-10-12T02:56:00;52.35;;;28.55;;
1154;SDS011;566;48.414;9.118;2022-10-12T02:58:30;56.97;;;31.02;;
1154;SDS011;566;48.414;9.118;2022-10-12T03:00:56;70.05;;;33.13;;
1154;SDS011;566;48.414;9.118;2022-10-12T03:03:22;54.03;;;30.20;;
1154;SDS011;566;48.414;9.118;2022-10-12T03:05:47;58.47;;;30.90;;
1154;SDS011;566;48.414;9.118;2022-10-12T03:08:13;54.00;;;31.15;;
1154;SDS011;566;48.414;9.118;2022-10-12T03:10:39;62.95;;;34.10;;
1154;SDS011;566;48.414;9.118;2022-10-12T03:13:04;62.30;;;34.47;;
1154;SDS011;566;48.414;9.118;2022-10-12T03:15:33;51.55;;;29.55;;
1154;SDS011;566;48.414;9.118;2022-10-12T03:17:59;58.03;;;31.05;;
1154;SDS011;566;48.414;9.118;2022-10-12T03:20:25;59.55;;;30.75;;
1154;SDS011;566;48.414;9.118;2022-10-12T03:22:50;53.90;;;32.42;;
1154;SDS011;566;48.414;9.118;2022-10-12T03:25:16;59.03;;;30.80;;
1154;SDS011;566;48.414;9.118;2022-10-12T03:27:42;44.92;;;26.83;;
1154;SDS011;566;48.414;9.118;2022-10-12T03:30:08;47.47;;;26.80;;
1154;SDS011;566;48.414;9.118;2022-10-12T03:32:35;50.13;;;28.35;;
1154;SDS011;566;48.414;9.118;2022-10-12T03:35:04;48.38;;;27.83;;
1154;SDS011;566;48.414;9.118;2022-10-12T03:37:30;47.00;;;26.10;;
1154;SDS011;566;48.414;9.118;2022-10-12T03:39:56;48.33;;;26.10;;
1154;SDS011;566;48.414;9.118;2022-10-12T03:42:22;47.22;;;25.73;;
1154;SDS011;566;48.414;9.118;2022-10-12T03:44:47;44.22;;;26.15;;
1154;SDS011;566;48.414;9.118;2022-10-12T03:47:13;41.67;;;24.60;;
1154;SDS011;566;48.414;9.118;2022-10-12T03:49:39;45.42;;;22.77;;
1154;SDS011;566;48.414;9.118;2022-10-12T03:52:04;42.35;;;23.33;;
1154;SDS011;566;48.414;9.118;2022-10-12T03:54:30;43.30;;;22.73;;
1154;SDS011;566;48.414;9.118;2022-10-12T03:56:56;37.50;;;22.77;;
1154;SDS011;566;48.414;9.118;2022-10-12T03:59:21;41.88;;;24.05;;
1154;SDS011;566;48.414;9.118;2022-10-12T04:01:47;41.50;;;24.40;;
1154;SDS011;566;48.414;9.118;2022-10-12T04:04:13;36.25;;;22.40;;
1154;SDS011;566;48.414;9.118;2022-10-12T04:06:38;40.00;;;24.00;;
1154;SDS011;566;48.414;9.118;2022-10-12T04:09:04;41.58;;;23.02;;
1154;SDS011;566;48.414;9.118;2022-10-12T04:11:29;42.05;;;23.83;;
1154;SDS011;566;48.414;9.118;2022-10-12T04:13:55;40.72;;;21.88;;
1154;SDS011;566;48.414;9.118;2022-10-12T04:16:21;39.15;;;22.63;;
1154;SDS011;566;48.414;9.118;2022-10-12T04:18:46;36.58;;;22.98;;
1154;SDS011;566;48.414;9.118;2022-10-12T04:21:13;38.05;;;22.92;;
1154;SDS011;566;48.414;9.118;2022-10-12T04:23:40;39.38;;;22.50;;
1154;SDS011;566;48.414;9.118;2022-10-12T04:26:06;37.17;;;23.05;;
1154;SDS011;566;48.414;9.118;2022-10-12T04:28:32;41.35;;;23.17;;
1154;SDS011;566;48.414;9.118;2022-10-12T04:30:58;38.55;;;22.15;;
1154;SDS011;566;48.414;9.118;2022-10-12T04:33:24;34.22;;;21.63;;
1154;SDS011;566;48.414;9.118;2022-10-12T04:35:50;40.05;;;23.35;;
1154;SDS011;566;48.414;9.118;2022-10-12T04:38:15;41.00;;;21.25;;
1154;SDS011;566;48.414;9.118;2022-10-12T04:40:45;38.90;;;22.33;;
1154;SDS011;566;48.414;9.118;2022-10-12T04:43:12;36.35;;;21.90;;
1154;SDS011;566;48.414;9.118;2022-10-12T04:45:38;35.42;;;20.98;;
1154;SDS011;566;48.414;9.118;2022-10-12T04:48:04;37.83;;;20.30;;
1154;SDS011;566;48.414;9.118;2022-10-12T04:50:30;40.70;;;20.58;;
1154;SDS011;566;48.414;9.118;2022-10-12T04:52:55;33.20;;;19.23;;
1154;SDS011;566;48.414;9.118;2022-10-12T04:55:21;36.03;;;22.70;;
1154;SDS011;566;48.414;9.118;2022-10-12T04:57:46;37.97;;;21.92;;
1154;SDS011;566;48.414;9.118;2022-10-12T05:00:14;34.80;;;20.17;;
1154;SDS011;566;48.414;9.118;2022-10-12T05:02:39;39.83;;;20.98;;
1154;SDS011;566;48.414;9.118;2022-10-12T05:05:05;34.10;;;19.45;;
1154;SDS011;566;48.414;9.118;2022-10-12T05:07:31;35.05;;;21.65;;
1154;SDS011;566;48.414;9.118;2022-10-12T05:09:57;35.92;;;21.83;;
1154;SDS011;566;48.414;9.118;2022-10-12T05:12:22;31.23;;;19.60;;
1154;SDS011;566;48.414;9.118;2022-10-12T05:14:48;35.72;;;20.70;;
1154;SDS011;566;48.414;9.118;2022-10-12T05:17:14;34.03;;;20.20;;
1154;SDS011;566;48.414;9.118;2022-10-12T05:19:39;31.33;;;17.98;;
1154;SDS011;566;48.414;9.118;2022-10-12T05:22:05;35.80;;;20.35;;
1154;SDS011;566;48.414;9.118;2022-10-12T05:24:30;33.47;;;18.75;;
1154;SDS011;566;48.414;9.118;2022-10-12T05:26:56;33.60;;;20.77;;
1154;SDS011;566;48.414;9.118;2022-10-12T05:29:22;32.45;;;20.25;;
1154;SDS011;566;48.414;9.118;2022-10-12T05:31:48;34.38;;;19.90;;
1154;SDS011;566;48.414;9.118;2022-10-12T05:34:13;30.95;;;20.00;;
1154;SDS011;566;48.414;9.118;2022-10-12T05:36:39;29.55;;;18.05;;
1154;SDS011;566;48.414;9.118;2022-10-12T05:39:05;39.60;;;20.83;;
1154;SDS011;566;48.414;9.118;2022-10-12T05:41:33;36.92;;;20.95;;
1154;SDS011;566;48.414;9.118;2022-10-12T05:43:59;32.55;;;18.63;;
1154;SDS011;566;48.414;9.118;2022-10-12T05:46:28;35.38;;;20.20;;
1154;SDS011;566;48.414;9.118;2022-10-12T05:48:54;32.13;;;18.92;;
1154;SDS011;566;48.414;9.118;2022-10-12T05:51:19;36.15;;;20.50;;
1154;SDS011;566;48.414;9.118;2022-10-12T05:53:45;39.35;;;21.75;;
1154;SDS011;566;48.414;9.118;2022-10-12T05:56:11;37.90;;;22.20;;
1154;SDS011;566;48.414;9.118;2022-10-12T05:58:37;34.63;;;21.55;;
1154;SDS011;566;48.414;9.118;2022-10-12T06:01:06;32.65;;;20.27;;
1154;SDS011;566;48.414;9.118;2022-10-12T06:03:33;39.83;;;21.83;;
1154;SDS011;566;48.414;9.118;2022-10-12T06:05:59;38.17;;;20.42;;
1154;SDS011;566;48.414;9.118;2022-10-12T06:08:24;32.55;;;19.70;;
1154;SDS011;566;48.414;9.118;2022-10-12T06:10:51;36.42;;;19.55;;
1154;SDS011;566;48.414;9.118;2022-10-12T06:13:16;34.72;;;20.27;;
1154;SDS011;566;48.414;9.118;2022-10-12T06:15:44;34.78;;;20.45;;
1154;SDS011;566;48.414;9.118;2022-10-12T06:18:11;37.05;;;19.45;;
1154;SDS011;566;48.414;9.118;2022-10-12T06:20:38;27.55;;;18.38;;
1154;SDS011;566;48.414;9.118;2022-10-12T06:23:06;29.80;;;18.38;;
1154;SDS011;566;48.414;9.118;2022-10-12T06:25:32;31.85;;;20.20;;
1154;SDS011;566;48.414;9.118;2022-10-12T06:27:58;33.22;;;19.95;;
1154;SDS011;566;48.414;9.118;2022-10-12T06:30:24;32.42;;;19.55;;
1154;SDS011;566;48.414;9.118;2022-10-12T06:32:50;34.72;;;20.15;;
1154;SDS011;566;48.414;9.118;2022-10-12T06:35:15;30.38;;;18.35;;
1154;SDS011;566;48.414;9.118;2022-10-12T06:37:47;37.47;;;19.60;;
1154;SDS011;566;48.414;9.118;2022-10-12T06:40:16;39.20;;;19.88;;
1154;SDS011;566;48.414;9.118;2022-10-12T06:42:42;30.77;;;18.65;;
1154;SDS011;566;48.414;9.118;2022-10-12T06:45:08;36.10;;;20.23;;
1154;SDS011;566;48.414;9.118;2022-10-12T06:47:34;37.15;;;19.30;;
1154;SDS011;566;48.414;9.118;2022-10-12T06:50:01;33.22;;;18.95;;
1154;SDS011;566;48.414;9.118;2022-10-12T06:52:34;27.90;;;16.80;;
1154;SDS011;566;48.414;9.118;2022-10-12T06:55:09;36.33;;;20.25;;
1154;SDS011;566;48.414;9.118;2022-10-12T06:57:36;47.78;;;19.02;;
1154;SDS011;566;48.414;9.118;2022-10-12T07:00:04;36.53;;;19.73;;
1154;SDS011;566;48.414;9.118;2022-10-12T07:02:33;46.30;;;21.65;;
1154;SDS011;566;48.414;9.118;2022-10-12T07:04:59;36.38;;;20.67;;
1154;SDS011;566;48.414;9.118;2022-10-12T07:07:25;44.28;;;20.42;;
1154;SDS011;566;48.414;9.118;2022-10-12T07:09:54;76.53;;;23.10;;
1154;SDS011;566;48.414;9.118;2022-10-12T07:12:23;32.25;;;19.55;;
1154;SDS011;566;48.414;9.118;2022-10-12T07:14:49;39.80;;;21.17;;
1154;SDS011;566;48.414;9.118;2022-10-12T07:17:14;32.60;;;16.75;;
1154;SDS011;566;48.414;9.118;2022-10-12T07:19:40;44.08;;;20.42;;
1154;SDS011;566;48.414;9.118;2022-10-12T07:22:06;43.15;;;19.50;;
1154;SDS011;566;48.414;9.118;2022-10-12T07:24:35;31.40;;;17.50;;
1154;SDS011;566;48.414;9.118;2022-10-12T07:27:03;31.67;;;17.95;;
1154;SDS011;566;48.414;9.118;2022-10-12T07:29:32;30.35;;;17.92;;
1154;SDS011;566;48.414;9.118;2022-10-12T07:31:58;28.08;;;17.63;;
1154;SDS011;566;48.414;9.118;2022-10-12T07:34:24;31.30;;;16.55;;
1154;SDS011;566;48.414;9.118;2022-10-12T07:36:50;32.80;;;18.73;;
1154;SDS011;566;48.414;9.118;2022-10-12T07:39:16;32.47;;;16.42;;
1154;SDS011;566;48.414;9.118;2022-10-12T07:41:47;28.17;;;15.55;;
1154;SDS011;566;48.414;9.118;2022-10-12T07:44:13;23.88;;;13.98;;
1154;SDS011;566;48.414;9.118;2022-10-12T07:46:39;30.13;;;15.25;;
1154;SDS011;566;48.414;9.118;2022-10-12T07:49:05;29.60;;;16.48;;
1154;SDS011;566;48.414;9.118;2022-10-12T07:51:31;59.65;;;35.58;;
1154;SDS011;566;48.414;9.118;2022-10-12T07:53:57;63.28;;;41.30;;
1154;SDS011;566;48.414;9.118;2022-10-12T07:56:24;35.55;;;23.00;;
1154;SDS011;566;48.414;9.118;2022-10-12T07:58:51;32.65;;;20.02;;
1154;SDS011;566;48.414;9.118;2022-10-12T08:01:19;27.38;;;16.95;;
1154;SDS011;566;48.414;9.118;2022-10-12T08:03:47;27.88;;;17.65;;
1154;SDS011;566;48.414;9.118;2022-10-12T08:06:14;28.75;;;15.95;;
1154;SDS011;566;48.414;9.118;2022-10-12T08:08:41;22.92;;;14.00;;
1154;SDS011;566;48.414;9.118;2022-10-12T08:11:08;22.88;;;13.55;;
1154;SDS011;566;48.414;9.118;2022-10-12T08:13:35;30.13;;;15.75;;
1154;SDS011;566;48.414;9.118;2022-10-12T08:16:01;25.67;;;15.20;;
1154;SDS011;566;48.414;9.118;2022-10-12T08:18:28;25.63;;;13.70;;
1154;SDS011;566;48.414;9.118;2022-10-12T08:20:54;23.60;;;12.73;;
1154;SDS011;566;48.414;9.118;2022-10-12T08:23:20;20.42;;;12.88;;
1154;SDS011;566;48.414;9.118;2022-10-12T08:25:51;23.73;;;12.40;;
1154;SDS011;566;48.414;9.118;2022-10-12T08:28:19;20.00;;;13.00;;
1154;SDS011;566;48.414;9.118;2022-10-12T08:30:45;19.13;;;11.80;;
1154;SDS011;566;48.414;9.118;2022-10-12T08:33:11;16.88;;;11.38;;
1154;SDS011;566;48.414;9.118;2022-10-12T08:35:40;18.80;;;11.27;;
1154;SDS011;566;48.414;9.118;2022-10-12T08:38:07;21.05;;;12.82;;
1154;SDS011;566;48.414;9.118;2022-10-12T08:46:22;20.75;;;11.05;;
1154;SDS011;566;48.414;9.118;2022-10-12T08:48:53;16.45;;;11.23;;
1154;SDS011;566;48.414;9.118;2022-10-12T08:51:32;16.58;;;10.75;;
1154;SDS011;566;48.414;9.118;2022-10-12T08:54:20;17.80;;;10.95;;
1154;SDS011;566;48.414;9.118;2022-10-12T08:56:51;16.85;;;11.07;;
1154;SDS011;566;48.414;9.118;2022-10-12T08:59:18;17.63;;;10.57;;
1154;SDS011;566;48.414;9.118;2022-10-12T09:07:06;16.42;;;10.02;;
1154;SDS011;566;48.414;9.118;2022-10-12T09:15:15;15.27;;;8.68;;
1154;SDS011;566;48.414;9.118;2022-10-12T09:17:51;13.68;;;9.45;;
1154;SDS011;566;48.414;9.118;2022-10-12T09:20:21;15.65;;;9.15;;
1154;SDS011;566;48.414;9.118;2022-10-12T09:22:52;16.90;;;9.52;;
1154;SDS011;566;48.414;9.118;2022-10-12T09:25:25;12.80;;;8.60;;
1154;SDS011;566;48.414;9.118;2022-10-12T09:27:52;15.07;;;8.35;;
1154;SDS011;566;48.414;9.118;2022-10-12T09:30:21;12.82;;;7.68;;
1154;SDS011;566;48.414;9.118;2022-10-12T09:35:35;18.80;;;9.15;;
1154;SDS011;566;48.414;9.118;2022-10-12T09:38:01;16.90;;;9.73;;
1154;SDS011;566;48.414;9.118;2022-10-12T09:40:29;14.60;;;9.00;;
1154;SDS011;566;48.414;9.118;2022-10-12T09:42:58;15.07;;;8.65;;
1154;SDS011;566;48.414;9.118;2022-10-12T09:45:27;14.75;;;8.55;;
1154;SDS011;566;48.414;9.118;2022-10-12T09:50:48;14.20;;;8.63;;
1154;SDS011;566;48.414;9.118;2022-10-12T09:53:19;17.08;;;9.63;;
1154;SDS011;566;48.414;9.118;2022-10-12T09:55:55;17.67;;;8.10;;
1154;SDS011;566;48.414;9.118;2022-10-12T09:58:24;14.02;;;8.70;;
1154;SDS011;566;48.414;9.118;2022-10-12T10:04:11;17.13;;;9.80;;
1154;SDS011;566;48.414;9.118;2022-10-12T10:06:41;14.50;;;8.40;;
1154;SDS011;566;48.414;9.118;2022-10-12T10:09:29;16.35;;;9.85;;
1154;SDS011;566;48.414;9.118;2022-10-12T10:11:57;18.02;;;10.23;;
1154;SDS011;566;48.414;9.118;2022-10-12T10:14:50;16.88;;;10.60;;
1154;SDS011;566;48.414;9.118;2022-10-12T10:19:52;17.75;;;10.90;;
1154;SDS011;566;48.414;9.118;2022-10-12T10:22:20;16.60;;;11.18;;
1154;SDS011;566;48.414;9.118;2022-10-12T10:24:57;19.00;;;11.27;;
1154;SDS011;566;48.414;9.118;2022-10-12T10:27:37;17.52;;;9.95;;
1154;SDS011;566;48.414;9.118;2022-10-12T10:32:42;17.08;;;11.00;;
1154;SDS011;566;48.414;9.118;2022-10-12T10:37:41;17.67;;;10.88;;
1154;SDS011;566;48.414;9.118;2022-10-12T10:40:21;18.65;;;9.93;;
1154;SDS011;566;48.414;9.118;2022-10-12T10:43:06;19.45;;;10.68;;
1154;SDS011;566;48.414;9.118;2022-10-12T10:45:49;20.13;;;9.35;;
1154;SDS011;566;48.414;9.118;2022-10-12T10:48:23;23.58;;;11.32;;
1154;SDS011;566;48.414;9.118;2022-10-12T10:50:57;22.40;;;12.50;;
1154;SDS011;566;48.414;9.118;2022-10-12T10:53:31;17.20;;;10.35;;
1154;SDS011;566;48.414;9.118;2022-10-12T10:56:24;23.13;;;11.68;;
1154;SDS011;566;48.414;9.118;2022-10-12T10:59:01;17.35;;;10.75;;
1154;SDS011;566;48.414;9.118;2022-10-12T11:04:18;20.92;;;11.30;;
1154;SDS011;566;48.414;9.118;2022-10-12T11:06:55;17.30;;;9.98;;
1154;SDS011;566;48.414;9.118;2022-10-12T11:09:26;17.48;;;10.60;;
1154;SDS011;566;48.414;9.118;2022-10-12T11:11:59;19.63;;;10.80;;
1154;SDS011;566;48.414;9.118;2022-10-12T11:14:33;21.75;;;11.82;;
1154;SDS011;566;48.414;9.118;2022-10-12T11:17:05;21.10;;;12.27;;
1154;SDS011;566;48.414;9.118;2022-10-12T11:19:57;25.08;;;12.82;;
1154;SDS011;566;48.414;9.118;2022-10-12T11:25:37;20.48;;;12.38;;
1154;SDS011;566;48.414;9.118;2022-10-12T11:28:05;23.23;;;12.45;;
1154;SDS011;566;48.414;9.118;2022-10-12T11:30:39;22.08;;;12.43;;
1154;SDS011;566;48.414;9.118;2022-10-12T11:33:12;21.08;;;12.27;;
1154;SDS011;566;48.414;9.118;2022-10-12T11:35:45;21.65;;;10.95;;
1154;SDS011;566;48.414;9.118;2022-10-12T11:41:02;21.88;;;11.45;;
1154;SDS011;566;48.414;9.118;2022-10-12T11:44:29;16.73;;;9.57;;
1154;SDS011;566;48.414;9.118;2022-10-12T11:47:02;18.80;;;10.63;;
1154;SDS011;566;48.414;9.118;2022-10-12T11:52:42;19.75;;;11.23;;
1154;SDS011;566;48.414;9.118;2022-10-12T11:58:18;21.27;;;10.65;;
1154;SDS011;566;48.414;9.118;2022-10-12T12:03:29;17.00;;;10.23;;
1154;SDS011;566;48.414;9.118;2022-10-12T12:11:30;17.83;;;10.07;;
1154;SDS011;566;48.414;9.118;2022-10-12T12:19:54;19.58;;;10.20;;
1154;SDS011;566;48.414;9.118;2022-10-12T12:27:47;20.65;;;10.25;;
1154;SDS011;566;48.414;9.118;2022-10-12T12:35:56;19.67;;;10.70;;
1154;SDS011;566;48.414;9.118;2022-10-12T12:38:34;17.35;;;10.05;;
1154;SDS011;566;48.414;9.118;2022-10-12T12:41:10;18.83;;;9.45;;
1154;SDS011;566;48.414;9.118;2022-10-12T12:46:21;17.83;;;10.37;;
1154;SDS011;566;48.414;9.118;2022-10-12T12:51:22;18.38;;;10.25;;
1154;SDS011;566;48.414;9.118;2022-10-12T12:54:03;16.98;;;9.88;;
1154;SDS011;566;48.414;9.118;2022-10-12T12:56:39;19.20;;;9.63;;
1154;SDS011;566;48.414;9.118;2022-10-12T13:19:02;14.75;;;7.65;;
1154;SDS011;566;48.414;9.118;2022-10-12T13:21:40;20.23;;;7.50;;
1154;SDS011;566;48.414;9.118;2022-10-12T13:26:53;17.65;;;8.90;;
1154;SDS011;566;48.414;9.118;2022-10-12T13:35:12;17.63;;;8.10;;
1154;SDS011;566;48.414;9.118;2022-10-12T13:38:20;14.45;;;6.88;;
1154;SDS011;566;48.414;9.118;2022-10-12T13:43:44;14.85;;;7.22;;
1154;SDS011;566;48.414;9.118;2022-10-12T13:49:23;17.02;;;6.78;;
1154;SDS011;566;48.414;9.118;2022-10-12T13:51:52;13.90;;;6.30;;
1154;SDS011;566;48.414;9.118;2022-10-12T13:57:02;17.10;;;6.30;;
1154;SDS011;566;48.414;9.118;2022-10-12T13:59:36;16.15;;;6.07;;
1154;SDS011;566;48.414;9.118;2022-10-12T14:02:02;10.88;;;5.25;;
1154;SDS011;566;48.414;9.118;2022-10-12T14:04:42;12.02;;;5.47;;
1154;SDS011;566;48.414;9.118;2022-10-12T14:07:18;14.23;;;5.18;;
1154;SDS011;566;48.414;9.118;2022-10-12T14:09:51;13.23;;;5.55;;
1154;SDS011;566;48.414;9.118;2022-10-12T14:12:28;13.90;;;6.15;;
1154;SDS011;566;48.414;9.118;2022-10-12T14:14:57;19.23;;;6.22;;
1154;SDS011;566;48.414;9.118;2022-10-12T14:17:24;18.48;;;6.30;;
1154;SDS011;566;48.414;9.118;2022-10-12T14:19:51;15.77;;;5.88;;
1154;SDS011;566;48.414;9.118;2022-10-12T14:22:28;14.68;;;5.78;;
1154;SDS011;566;48.414;9.118;2022-10-12T14:32:44;14.98;;;5.30;;
1154;SDS011;566;48.414;9.118;2022-10-12T14:35:26;12.88;;;5.32;;
1154;SDS011;566;48.414;9.118;2022-10-12T14:37:54;13.13;;;4.93;;
1154;SDS011;566;48.414;9.118;2022-10-12T14:40:34;14.88;;;4.75;;
1154;SDS011;566;48.414;9.118;2022-10-12T14:43:05;16.05;;;4.93;;
1154;SDS011;566;48.414;9.118;2022-10-12T14:45:45;13.52;;;5.18;;
1154;SDS011;566;48.414;9.118;2022-10-12T14:48:18;12.55;;;4.43;;
1154;SDS011;566;48.414;9.118;2022-10-12T14:50:47;11.77;;;4.60;;
1154;SDS011;566;48.414;9.118;2022-10-12T14:53:13;13.15;;;4.75;;
1154;SDS011;566;48.414;9.118;2022-10-12T14:55:40;14.38;;;5.93;;
1154;SDS011;566;48.414;9.118;2022-10-12T14:58:08;14.48;;;5.93;;
1154;SDS011;566;48.414;9.118;2022-10-12T15:00:39;12.13;;;5.05;;
1154;SDS011;566;48.414;9.118;2022-10-12T15:03:04;15.27;;;5.22;;
1154;SDS011;566;48.414;9.118;2022-10-12T15:05:31;14.20;;;5.07;;
1154;SDS011;566;48.414;9.118;2022-10-12T15:07:57;15.88;;;4.97;;
1154;SDS011;566;48.414;9.118;2022-10-12T15:10:25;11.35;;;5.10;;
1154;SDS011;566;48.414;9.118;2022-10-12T15:12:52;12.40;;;4.80;;
1154;SDS011;566;48.414;9.118;2022-10-12T15:17:55;12.88;;;5.10;;
1154;SDS011;566;48.414;9.118;2022-10-12T15:20:22;12.13;;;5.13;;
1154;SDS011;566;48.414;9.118;2022-10-12T15:22:48;12.02;;;4.85;;
1154;SDS011;566;48.414;9.118;2022-10-12T15:25:19;14.05;;;4.70;;
1154;SDS011;566;48.414;9.118;2022-10-12T15:27:48;19.05;;;5.07;;
1154;SDS011;566;48.414;9.118;2022-10-12T15:30:17;12.50;;;4.80;;
1154;SDS011;566;48.414;9.118;2022-10-12T15:32:43;9.00;;;4.68;;
1154;SDS011;566;48.414;9.118;2022-10-12T15:37:51;14.15;;;4.50;;
1154;SDS011;566;48.414;9.118;2022-10-12T15:40:21;12.02;;;4.80;;
1154;SDS011;566;48.414;9.118;2022-10-12T15:42:47;10.13;;;4.20;;
1154;SDS011;566;48.414;9.118;2022-10-12T15:45:24;11.80;;;4.32;;
1154;SDS011;566;48.414;9.118;2022-10-12T15:47:52;15.57;;;4.15;;
1154;SDS011;566;48.414;9.118;2022-10-12T15:50:19;11.90;;;4.93;;
1154;SDS011;566;48.414;9.118;2022-10-12T15:52:48;17.15;;;5.95;;
1154;SDS011;566;48.414;9.118;2022-10-12T15:55:15;10.77;;;4.78;;
1154;SDS011;566;48.414;9.118;2022-10-12T15:57:44;12.52;;;4.60;;
1154;SDS011;566;48.414;9.118;2022-10-12T16:00:11;13.05;;;4.90;;
1154;SDS011;566;48.414;9.118;2022-10-12T16:02:37;11.30;;;4.75;;
1154;SDS011;566;48.414;9.118;2022-10-12T16:05:03;14.48;;;5.40;;
1154;SDS011;566;48.414;9.118;2022-10-12T16:07:38;13.55;;;5.90;;
1154;SDS011;566;48.414;9.118;2022-10-12T16:10:03;14.70;;;5.82;;
1154;SDS011;566;48.414;9.118;2022-10-12T16:12:29;16.00;;;6.47;;
1154;SDS011;566;48.414;9.118;2022-10-12T16:14:55;16.33;;;8.40;;
1154;SDS011;566;48.414;9.118;2022-10-12T16:17:20;16.75;;;7.00;;
1154;SDS011;566;48.414;9.118;2022-10-12T16:19:46;21.55;;;8.70;;
1154;SDS011;566;48.414;9.118;2022-10-12T16:22:12;20.10;;;7.90;;
1154;SDS011;566;48.414;9.118;2022-10-12T16:24:37;16.67;;;7.50;;
1154;SDS011;566;48.414;9.118;2022-10-12T16:27:03;15.70;;;8.35;;
1154;SDS011;566;48.414;9.118;2022-10-12T16:29:29;27.23;;;8.50;;
1154;SDS011;566;48.414;9.118;2022-10-12T16:31:54;26.38;;;8.07;;
1154;SDS011;566;48.414;9.118;2022-10-12T16:34:20;19.52;;;8.48;;
1154;SDS011;566;48.414;9.118;2022-10-12T16:36:45;23.05;;;8.00;;
1154;SDS011;566;48.414;9.118;2022-10-12T16:39:11;19.23;;;7.88;;
1154;SDS011;566;48.414;9.118;2022-10-12T16:41:37;17.65;;;8.05;;
1154;SDS011;566;48.414;9.118;2022-10-12T16:44:02;21.02;;;7.80;;
1154;SDS011;566;48.414;9.118;2022-10-12T16:46:28;20.65;;;9.00;;
1154;SDS011;566;48.414;9.118;2022-10-12T16:48:55;16.98;;;9.18;;
1154;SDS011;566;48.414;9.118;2022-10-12T16:51:20;20.67;;;8.40;;
1154;SDS011;566;48.414;9.118;2022-10-12T16:53:46;17.73;;;9.27;;
1154;SDS011;566;48.414;9.118;2022-10-12T16:56:11;19.00;;;9.63;;
1154;SDS011;566;48.414;9.118;2022-10-12T16:58:37;23.05;;;9.02;;
1154;SDS011;566;48.414;9.118;2022-10-12T17:01:06;19.90;;;10.27;;
1154;SDS011;566;48.414;9.118;2022-10-12T17:03:36;20.05;;;9.82;;
1154;SDS011;566;48.414;9.118;2022-10-12T17:06:02;27.23;;;10.15;;
1154;SDS011;566;48.414;9.118;2022-10-12T17:08:30;22.77;;;10.07;;
1154;SDS011;566;48.414;9.118;2022-10-12T17:10:58;22.45;;;10.68;;
1154;SDS011;566;48.414;9.118;2022-10-12T17:13:28;23.88;;;10.02;;
1154;SDS011;566;48.414;9.118;2022-10-12T17:15:56;26.80;;;12.10;;
1154;SDS011;566;48.414;9.118;2022-10-12T17:18:37;23.25;;;10.27;;
1154;SDS011;566;48.414;9.118;2022-10-12T17:21:03;24.75;;;11.13;;
1154;SDS011;566;48.414;9.118;2022-10-12T17:23:28;22.30;;;11.20;;
1154;SDS011;566;48.414;9.118;2022-10-12T17:25:57;21.35;;;12.00;;
1154;SDS011;566;48.414;9.118;2022-10-12T17:28:23;24.05;;;11.52;;
1154;SDS011;566;48.414;9.118;2022-10-12T17:30:49;21.35;;;11.77;;
1154;SDS011;566;48.414;9.118;2022-10-12T17:33:14;23.00;;;11.32;;
1154;SDS011;566;48.414;9.118;2022-10-12T17:35:40;26.13;;;12.48;;
1154;SDS011;566;48.414;9.118;2022-10-12T17:38:08;27.35;;;12.90;;
1154;SDS011;566;48.414;9.118;2022-10-12T17:40:37;27.58;;;11.70;;
1154;SDS011;566;48.414;9.118;2022-10-12T17:43:03;30.92;;;12.90;;
1154;SDS011;566;48.414;9.118;2022-10-12T17:45:31;23.40;;;12.13;;
1154;SDS011;566;48.414;9.118;2022-10-12T17:47:57;20.73;;;12.27;;
1154;SDS011;566;48.414;9.118;2022-10-12T17:50:23;27.38;;;12.05;;